Time;durP1;ratioP1;P1;durP2;ratioP2;P2;SDS_P1;SDS_P2;PMS_P1;PMS_P2;Temp;Humidity;BMP_temperature;BMP_pressure;BME280_temperature;BME280_humidity;BME280_pressure;Samples;Min_cycle;Max_cycle;Signal;HPM_P1;HPM_P2
2022/10/05 00:53:22;;;;;;;2.33;2.10;;;;;;;;;;4221592;26;20046;-81
2022/10/05 00:56:06;;;;;;;3.05;2.35;;;;;;;;;;4994439;28;20124;-81
2022/10/05 00:58:47;;;;;;;1.92;1.85;;;;;;;;;;4979162;28;20094;-82
2022/10/05 01:01:15;;;;;;;2.05;1.95;;;;;;;;;;4961652;28;20133;-80
2022/10/05 01:03:51;;;;;;;2.20;2.10;;;;;;;;;;4941960;28;20600;-80
2022/10/05 01:06:17;;;;;;;2.15;1.95;;;;;;;;;;4957423;28;20059;-81
2022/10/05 01:08:55;;;;;;;2.20;2.10;;;;;;;;;;4942182;28;20149;-82
2022/10/05 01:11:24;;;;;;;2.08;1.98;;;;;;;;;;4944210;28;20050;-80
2022/10/05 01:14:13;;;;;;;2.15;2.05;;;;;;;;;;4950607;28;20039;-81
2022/10/05 01:17:19;;;;;;;2.72;2.55;;;;;;;;;;4970314;28;20034;-82
2022/10/05 01:20:05;;;;;;;2.45;2.35;;;;;;;;;;4888595;29;20058;-82
2022/10/05 01:22:49;;;;;;;1.83;1.83;;;;;;;;;;4869317;29;20198;-82
2022/10/05 01:25:50;;;;;;;1.85;1.75;;;;;;;;;;4954498;28;20046;-81
2022/10/05 01:28:22;;;;;;;1.50;1.50;;;;;;;;;;4870325;29;20049;-80
2022/10/05 01:30:54;;;;;;;1.90;1.80;;;;;;;;;;4965668;28;20121;-82
2022/10/05 01:33:38;;;;;;;2.40;2.30;;;;;;;;;;4980844;28;20134;-81
2022/10/05 01:36:04;;;;;;;2.45;2.35;;;;;;;;;;4961520;28;20065;-81
2022/10/05 01:38:33;;;;;;;2.00;1.80;;;;;;;;;;4943572;28;20579;-81
2022/10/05 01:41:02;;;;;;;1.80;1.80;;;;;;;;;;4941887;28;20035;-80
2022/10/05 01:43:46;;;;;;;2.05;1.95;;;;;;;;;;4957297;28;20101;-80
2022/10/05 01:46:22;;;;;;;2.17;2.08;;;;;;;;;;4956489;28;20050;-81
2022/10/05 01:48:55;;;;;;;2.20;2.10;;;;;;;;;;4959065;28;20058;-81
2022/10/05 01:51:26;;;;;;;5.40;2.22;;;;;;;;;;4957874;28;20426;-81
2022/10/05 01:53:52;;;;;;;;;;;;;;;;;;4925288;28;20045;-81
2022/10/05 01:56:22;;;;;;;2.38;2.17;;;;;;;;;;4958272;28;20016;-81
2022/10/05 01:58:52;;;;;;;1.98;1.88;;;;;;;;;;4925931;28;20117;-81
2022/10/05 02:01:27;;;;;;;2.10;2.00;;;;;;;;;;4952779;28;20039;-85
2022/10/05 02:04:00;;;;;;;2.30;2.20;;;;;;;;;;4979789;28;20047;-85
2022/10/05 02:06:27;;;;;;;2.45;2.22;;;;;;;;;;4977801;28;20057;-84
2022/10/05 02:08:57;;;;;;;2.35;2.25;;;;;;;;;;4960582;28;20029;-82
2022/10/05 02:11:23;;;;;;;2.63;2.30;;;;;;;;;;4975251;28;20122;-82
2022/10/05 02:13:54;;;;;;;2.30;2.20;;;;;;;;;;4953165;28;20042;-84
2022/10/05 02:16:20;;;;;;;3.42;2.45;;;;;;;;;;4992366;28;20043;-85
2022/10/05 02:18:51;;;;;;;2.22;2.13;;;;;;;;;;4994207;28;20050;-85
2022/10/05 02:21:17;;;;;;;2.55;2.35;;;;;;;;;;4972909;28;20070;-84
2022/10/05 02:23:44;;;;;;;2.08;2.00;;;;;;;;;;4956763;28;20053;-85
2022/10/05 02:26:10;;;;;;;2.30;2.20;;;;;;;;;;4972386;28;20043;-84
2022/10/05 02:28:52;;;;;;;2.13;2.03;;;;;;;;;;4972043;28;20102;-86
2022/10/05 02:31:30;;;;;;;3.70;2.13;;;;;;;;;;4947147;28;20054;-81
2022/10/05 02:34:14;;;;;;;2.58;2.38;;;;;;;;;;4948299;28;20031;-82
2022/10/05 02:36:40;;;;;;;4.30;2.40;;;;;;;;;;4985420;28;20070;-82
2022/10/05 02:39:11;;;;;;;2.03;1.92;;;;;;;;;;4987881;28;20051;-83
2022/10/05 02:41:41;;;;;;;2.28;2.17;;;;;;;;;;4932562;28;20046;-82
2022/10/05 02:44:14;;;;;;;2.30;2.20;;;;;;;;;;4959335;28;20069;-80
2022/10/05 02:46:40;;;;;;;2.30;2.20;;;;;;;;;;4953935;28;20058;-80
2022/10/05 02:49:10;;;;;;;2.65;2.45;;;;;;;;;;4954069;28;20058;-81
2022/10/05 02:51:43;;;;;;;2.83;2.50;;;;;;;;;;4937434;28;20059;-81
2022/10/05 02:54:12;;;;;;;2.53;2.40;;;;;;;;;;4954616;28;20438;-81
2022/10/05 02:56:40;;;;;;;3.58;2.97;;;;;;;;;;4981699;28;20046;-84
2022/10/05 02:59:07;;;;;;;3.20;3.00;;;;;;;;;;4965093;28;20106;-84
2022/10/05 03:01:34;;;;;;;3.25;3.05;;;;;;;;;;4948964;28;20082;-84
2022/10/05 03:04:14;;;;;;;2.92;2.75;;;;;;;;;;4925068;28;20047;-82
2022/10/05 03:06:45;;;;;;;2.65;2.45;;;;;;;;;;4951364;28;20054;-82
2022/10/05 03:09:11;;;;;;;2.75;2.63;;;;;;;;;;4939653;28;20062;-83
2022/10/05 03:11:42;;;;;;;4.07;2.38;;;;;;;;;;4943558;28;20099;-84
2022/10/05 03:14:13;;;;;;;3.03;2.88;;;;;;;;;;4947161;28;20066;-82
2022/10/05 03:16:45;;;;;;;3.22;2.92;;;;;;;;;;5150548;23;20085;-88
2022/10/05 03:19:14;;;;;;;3.05;2.85;;;;;;;;;;5026377;23;20118;-89
2022/10/05 03:21:47;;;;;;;3.38;3.17;;;;;;;;;;4964813;28;20050;-80
2022/10/05 03:24:13;;;;;;;3.60;3.40;;;;;;;;;;4976069;28;20134;-81
2022/10/05 03:26:52;;;;;;;3.83;3.53;;;;;;;;;;4957931;28;20046;-81
2022/10/05 03:29:17;;;;;;;3.33;3.15;;;;;;;;;;4993549;28;20140;-80
2022/10/05 03:31:48;;;;;;;4.63;4.10;;;;;;;;;;4976171;28;20042;-82
2022/10/05 03:34:14;;;;;;;3.90;3.65;;;;;;;;;;4960264;28;20046;-81
2022/10/05 03:37:02;;;;;;;4.78;4.47;;;;;;;;;;4959847;28;20042;-80
2022/10/05 03:39:48;;;;;;;4.28;3.90;;;;;;;;;;4977347;28;20109;-82
2022/10/05 03:42:14;;;;;;;3.90;3.70;;;;;;;;;;4960528;28;20109;-81
2022/10/05 03:44:43;;;;;;;3.80;3.53;;;;;;;;;;4960589;28;20136;-83
2022/10/05 03:47:15;;;;;;;4.45;4.20;;;;;;;;;;4962353;28;20076;-82
2022/10/05 03:49:46;;;;;;;3.85;3.65;;;;;;;;;;4978936;28;20050;-83
2022/10/05 03:52:16;;;;;;;4.30;3.92;;;;;;;;;;4979327;28;20046;-82
2022/10/05 03:54:45;;;;;;;5.78;3.22;;;;;;;;;;4967087;28;20053;-82
2022/10/05 03:57:16;;;;;;;3.78;3.50;;;;;;;;;;4982778;28;20046;-83
2022/10/05 04:00:08;;;;;;;4.10;3.53;;;;;;;;;;4980910;28;20484;-83
2022/10/05 04:02:47;;;;;;;3.80;3.50;;;;;;;;;;4968706;28;20049;-82
2022/10/05 04:05:16;;;;;;;3.55;3.35;;;;;;;;;;4960775;28;20098;-83
2022/10/05 04:08:05;;;;;;;3.30;3.10;;;;;;;;;;4980639;28;20059;-82
2022/10/05 04:10:48;;;;;;;3.63;3.30;;;;;;;;;;4951824;28;20038;-84
2022/10/05 04:13:19;;;;;;;3.70;3.50;;;;;;;;;;4962828;28;20082;-83
2022/10/05 04:15:47;;;;;;;4.28;3.97;;;;;;;;;;4960657;28;20046;-85
2022/10/05 04:18:16;;;;;;;4.53;4.22;;;;;;;;;;4974135;28;20078;-84
2022/10/05 04:20:43;;;;;;;4.03;3.65;;;;;;;;;;4993331;28;20050;-82
2022/10/05 04:23:10;;;;;;;3.38;3.08;;;;;;;;;;4936800;28;20062;-82
2022/10/05 04:25:38;;;;;;;4.18;3.97;;;;;;;;;;4966723;28;20035;-85
2022/10/05 04:28:04;;;;;;;4.18;3.88;;;;;;;;;;4965731;28;20080;-83
2022/10/05 04:30:30;;;;;;;3.70;3.40;;;;;;;;;;4969528;28;20030;-83
2022/10/05 04:32:56;;;;;;;4.63;4.28;;;;;;;;;;4969288;28;20085;-84
2022/10/05 04:35:44;;;;;;;4.05;3.72;;;;;;;;;;4964311;28;20049;-83
2022/10/05 04:38:10;;;;;;;6.03;3.80;;;;;;;;;;4947269;28;20103;-83
2022/10/05 04:40:37;;;;;;;4.80;4.32;;;;;;;;;;4964257;28;20053;-82
2022/10/05 04:43:07;;;;;;;4.10;3.80;;;;;;;;;;4958696;28;20050;-82
2022/10/05 04:45:42;;;;;;;4.13;3.83;;;;;;;;;;4961688;28;20085;-83
2022/10/05 04:48:27;;;;;;;4.28;3.97;;;;;;;;;;4970830;28;20102;-85
2022/10/05 04:50:53;;;;;;;4.45;4.07;;;;;;;;;;4985603;28;20101;-84
2022/10/05 04:53:20;;;;;;;3.28;3.08;;;;;;;;;;4965784;28;20053;-83
2022/10/05 04:55:50;;;;;;;4.55;4.25;;;;;;;;;;4946384;28;20117;-82
2022/10/05 04:58:16;;;;;;;4.60;4.03;;;;;;;;;;4955164;28;20042;-81
2022/10/05 05:00:52;;;;;;;4.57;4.28;;;;;;;;;;4955314;28;20043;-80
2022/10/05 05:03:28;;;;;;;4.25;4.05;;;;;;;;;;4954956;28;20051;-81
2022/10/05 05:06:06;;;;;;;4.75;4.40;;;;;;;;;;4955959;28;20046;-87
2022/10/05 05:08:56;;;;;;;4.82;4.43;;;;;;;;;;4968096;28;20119;-85
2022/10/05 05:11:29;;;;;;;4.45;4.15;;;;;;;;;;4956926;28;20035;-85
2022/10/05 05:14:00;;;;;;;4.28;4.07;;;;;;;;;;4961325;28;20085;-85
2022/10/05 05:16:34;;;;;;;5.60;4.47;;;;;;;;;;4961708;28;20046;-85
2022/10/05 05:19:21;;;;;;;4.35;4.05;;;;;;;;;;4960709;28;20046;-86
2022/10/05 05:22:15;;;;;;;6.78;4.53;;;;;;;;;;4963931;28;20094;-85
2022/10/05 05:24:44;;;;;;;4.03;3.72;;;;;;;;;;4976237;28;20082;-86
2022/10/05 05:27:10;;;;;;;4.72;4.43;;;;;;;;;;4963129;28;20054;-81
2022/10/05 05:29:37;;;;;;;5.50;5.00;;;;;;;;;;4953739;28;20071;-80
2022/10/05 05:32:02;;;;;;;5.50;5.10;;;;;;;;;;4953950;28;20510;-81
2022/10/05 05:34:33;;;;;;;4.28;3.90;;;;;;;;;;4956523;28;20046;-83
2022/10/05 05:36:59;;;;;;;5.22;4.50;;;;;;;;;;4944536;28;20130;-82
2022/10/05 05:39:43;;;;;;;4.60;4.30;;;;;;;;;;4923559;29;20070;-82
2022/10/05 05:42:16;;;;;;;4.22;4.03;;;;;;;;;;4954599;28;20054;-82
2022/10/05 05:44:44;;;;;;;4.47;4.15;;;;;;;;;;4944562;29;20094;-84
2022/10/05 05:47:15;;;;;;;4.68;4.28;;;;;;;;;;4949140;29;20050;-85
2022/10/05 05:49:51;;;;;;;4.45;4.15;;;;;;;;;;4965256;28;20043;-81
2022/10/05 05:52:19;;;;;;;4.22;3.92;;;;;;;;;;4958343;28;20570;-83
2022/10/05 05:54:55;;;;;;;3.63;3.42;;;;;;;;;;4966595;28;20043;-84
2022/10/05 05:57:23;;;;;;;4.05;3.67;;;;;;;;;;4962438;28;20053;-81
2022/10/05 05:59:59;;;;;;;4.07;3.72;;;;;;;;;;4948827;28;20047;-86
2022/10/05 06:02:30;;;;;;;4.15;3.85;;;;;;;;;;4975763;28;20053;-81
2022/10/05 06:04:57;;;;;;;4.10;3.80;;;;;;;;;;4961620;28;20102;-87
2022/10/05 06:07:24;;;;;;;4.70;4.40;;;;;;;;;;4973988;28;20073;-81
2022/10/05 06:09:55;;;;;;;5.10;3.90;;;;;;;;;;4951850;28;20506;-83
2022/10/05 06:12:48;;;;;;;3.97;3.78;;;;;;;;;;4937307;28;20047;-83
2022/10/05 06:15:33;;;;;;;4.15;3.85;;;;;;;;;;4940909;28;20126;-81
2022/10/05 06:18:01;;;;;;;4.05;3.75;;;;;;;;;;4941878;28;20550;-83
2022/10/05 06:20:33;;;;;;;3.40;3.20;;;;;;;;;;4957849;28;20063;-83
2022/10/05 06:23:01;;;;;;;3.05;2.85;;;;;;;;;;4960253;28;20077;-82
2022/10/05 06:25:36;;;;;;;3.05;2.85;;;;;;;;;;4930279;28;20046;-84
2022/10/05 06:28:02;;;;;;;3.13;3.00;;;;;;;;;;4960278;28;20055;-83
2022/10/05 06:30:36;;;;;;;3.08;2.78;;;;;;;;;;4941342;28;20565;-82
2022/10/05 06:33:20;;;;;;;3.45;3.15;;;;;;;;;;4973594;28;20080;-81
2022/10/05 06:36:05;;;;;;;2.78;2.58;;;;;;;;;;4980781;28;20466;-82
2022/10/05 06:38:31;;;;;;;6.95;2.13;;;;;;;;;;4961280;28;20144;-82
2022/10/05 06:41:14;;;;;;;1.90;1.80;;;;;;;;;;4978049;28;20145;-83
2022/10/05 06:43:50;;;;;;;1.90;1.80;;;;;;;;;;4962205;28;20491;-81
2022/10/05 06:46:36;;;;;;;3.50;2.88;;;;;;;;;;4962359;28;20228;-82
2022/10/05 06:49:20;;;;;;;5.55;3.50;;;;;;;;;;4973737;28;20136;-82
2022/10/05 06:51:50;;;;;;;3.30;3.00;;;;;;;;;;4973788;28;20049;-82
2022/10/05 06:54:25;;;;;;;3.40;2.80;;;;;;;;;;4948592;28;20051;-82
2022/10/05 06:56:56;;;;;;;3.15;2.95;;;;;;;;;;4953603;28;20097;-82
2022/10/05 06:59:23;;;;;;;3.00;2.80;;;;;;;;;;4942705;28;20478;-81
2022/10/05 07:01:53;;;;;;;2.78;2.65;;;;;;;;;;4957088;28;20073;-80
2022/10/05 07:04:55;;;;;;;3.10;2.90;;;;;;;;;;4938522;29;20078;-80
2022/10/05 07:07:39;;;;;;;2.35;2.17;;;;;;;;;;4876687;29;20056;-80
2022/10/05 07:10:09;;;;;;;2.63;2.47;;;;;;;;;;4933003;29;20181;-80
2022/10/05 07:12:42;;;;;;;3.20;3.00;;;;;;;;;;4937767;29;20161;-80
2022/10/05 07:15:20;;;;;;;3.15;2.70;;;;;;;;;;4938156;28;20098;-80
2022/10/05 07:17:49;;;;;;;2.75;2.55;;;;;;;;;;4936189;28;20064;-79
2022/10/05 07:20:15;;;;;;;2.25;2.15;;;;;;;;;;4971419;28;20519;-82
2022/10/05 07:22:42;;;;;;;2.33;2.22;;;;;;;;;;4933455;28;20071;-78
2022/10/05 07:25:17;;;;;;;2.25;2.15;;;;;;;;;;4973347;28;20049;-78
2022/10/05 07:27:53;;;;;;;1.95;1.85;;;;;;;;;;4956500;28;20523;-81
2022/10/05 07:30:19;;;;;;;1.92;1.83;;;;;;;;;;4973041;28;20042;-77
2022/10/05 07:32:55;;;;;;;2.00;1.90;;;;;;;;;;4954546;28;20046;-78
2022/10/05 07:38:15;;;;;;;2.40;2.20;;;;;;;;;;4992064;28;20069;-78
2022/10/05 07:40:44;;;;;;;1.20;1.20;;;;;;;;;;4992893;28;20441;-72
2022/10/05 07:43:36;;;;;;;2.60;2.50;;;;;;;;;;4958432;28;20035;-72
2022/10/05 07:46:05;;;;;;;2.10;2.00;;;;;;;;;;4955008;28;20046;-74
2022/10/05 07:48:49;;;;;;;2.63;1.95;;;;;;;;;;4974101;28;20050;-72
2022/10/05 07:51:22;;;;;;;2.35;2.25;;;;;;;;;;4974719;28;20039;-73
2022/10/05 07:53:50;;;;;;;3.03;2.78;;;;;;;;;;4991841;28;20034;-74
2022/10/05 07:56:20;;;;;;;3.20;3.00;;;;;;;;;;4943064;28;20038;-74
2022/10/05 07:58:47;;;;;;;2.47;2.35;;;;;;;;;;4975863;28;20573;-73
2022/10/05 08:01:19;;;;;;;2.35;2.25;;;;;;;;;;4958560;28;20121;-73
2022/10/05 08:04:08;;;;;;;2.75;2.65;;;;;;;;;;4974269;28;20038;-73
2022/10/05 08:06:34;;;;;;;2.75;2.55;;;;;;;;;;4965709;28;20066;-74
2022/10/05 08:09:06;;;;;;;2.60;2.40;;;;;;;;;;4966715;28;20043;-73
2022/10/05 08:11:36;;;;;;;2.20;2.10;;;;;;;;;;4965853;28;20047;-76
2022/10/05 08:14:11;;;;;;;2.30;2.10;;;;;;;;;;4954890;28;20592;-73
2022/10/05 08:16:37;;;;;;;2.30;2.10;;;;;;;;;;4939114;28;20519;-73
2022/10/05 08:19:14;;;;;;;2.25;2.10;;;;;;;;;;4945218;28;20039;-74
2022/10/05 08:21:44;;;;;;;2.47;2.20;;;;;;;;;;4927961;28;20054;-73
2022/10/05 08:24:13;;;;;;;2.50;2.30;;;;;;;;;;4973627;28;20053;-73
2022/10/05 08:26:39;;;;;;;2.70;2.60;;;;;;;;;;4971704;28;20047;-73
2022/10/05 08:29:09;;;;;;;2.30;2.20;;;;;;;;;;4954447;28;20042;-74
2022/10/05 08:31:36;;;;;;;2.60;2.40;;;;;;;;;;4971987;28;20042;-73
2022/10/05 08:34:21;;;;;;;2.58;2.45;;;;;;;;;;4954554;28;20081;-72
2022/10/05 08:37:05;;;;;;;3.17;2.97;;;;;;;;;;4971805;28;20038;-73
2022/10/05 08:39:39;;;;;;;3.17;2.92;;;;;;;;;;4954113;28;20174;-73
2022/10/05 08:42:11;;;;;;;2.50;2.40;;;;;;;;;;4971770;28;20042;-72
2022/10/05 08:44:44;;;;;;;2.20;2.10;;;;;;;;;;4953814;28;20094;-73
2022/10/05 08:47:10;;;;;;;2.95;1.80;;;;;;;;;;4938299;28;20061;-73
2022/10/05 08:49:42;;;;;;;3.60;2.58;;;;;;;;;;4970228;28;20039;-75
2022/10/05 08:52:27;;;;;;;3.85;2.67;;;;;;;;;;4971034;28;20043;-74
2022/10/05 08:55:06;;;;;;;3.70;3.38;;;;;;;;;;4938717;28;20097;-74
2022/10/05 08:57:40;;;;;;;3.38;3.17;;;;;;;;;;4953969;28;20616;-75
2022/10/05 09:00:10;;;;;;;3.05;2.88;;;;;;;;;;4937966;28;20042;-75
2022/10/05 09:02:55;;;;;;;2.05;1.95;;;;;;;;;;4936983;28;20051;-74
2022/10/05 09:05:39;;;;;;;2.88;1.98;;;;;;;;;;4937886;28;20039;-74
2022/10/05 09:08:24;;;;;;;1.92;1.83;;;;;;;;;;4948845;28;20046;-72
2022/10/05 09:10:53;;;;;;;1.90;1.80;;;;;;;;;;4934699;28;20043;-73
2022/10/05 09:13:32;;;;;;;2.75;1.90;;;;;;;;;;4903221;29;20415;-73
2022/10/05 09:16:01;;;;;;;2.03;1.92;;;;;;;;;;4958674;28;20038;-74
2022/10/05 09:18:26;;;;;;;2.17;2.08;;;;;;;;;;4934498;28;20051;-75
2022/10/05 09:20:53;;;;;;;2.80;2.60;;;;;;;;;;4951495;28;20054;-74
2022/10/05 09:23:38;;;;;;;2.63;2.47;;;;;;;;;;4934541;28;20504;-76
2022/10/05 09:26:03;;;;;;;2.88;2.78;;;;;;;;;;4951983;28;20054;-75
2022/10/05 09:28:48;;;;;;;2.47;2.28;;;;;;;;;;4951183;28;20051;-75
2022/10/05 09:31:21;;;;;;;2.15;2.05;;;;;;;;;;4953988;28;20033;-76
2022/10/05 09:34:02;;;;;;;2.10;2.00;;;;;;;;;;4959942;28;20053;-76
2022/10/05 09:36:29;;;;;;;1.50;1.50;;;;;;;;;;4950644;28;20436;-74
2022/10/05 09:39:02;;;;;;;2.00;1.90;;;;;;;;;;4934779;28;20057;-75
2022/10/05 09:41:35;;;;;;;1.40;1.30;;;;;;;;;;4917850;28;20142;-75
2022/10/05 09:44:01;;;;;;;0.90;0.90;;;;;;;;;;4950596;28;20047;-74
2022/10/05 09:46:48;;;;;;;0.85;0.85;;;;;;;;;;4950302;28;20413;-75
2022/10/05 09:49:27;;;;;;;1.05;1.05;;;;;;;;;;4933233;29;20039;-75
2022/10/05 09:52:04;;;;;;;1.10;1.10;;;;;;;;;;4934884;28;20070;-75
2022/10/05 09:54:36;;;;;;;1.00;1.00;;;;;;;;;;4950358;28;20126;-75
2022/10/05 09:57:08;;;;;;;0.70;0.70;;;;;;;;;;4932111;28;20487;-74
2022/10/05 09:59:53;;;;;;;1.00;1.00;;;;;;;;;;4932144;28;20134;-75
2022/10/05 10:02:25;;;;;;;1.52;1.13;;;;;;;;;;4932258;28;20047;-75
2022/10/05 10:05:04;;;;;;;1.17;1.17;;;;;;;;;;4916695;28;20105;-75
2022/10/05 10:07:31;;;;;;;1.40;1.27;;;;;;;;;;4949363;28;20058;-75
2022/10/05 10:10:00;;;;;;;1.40;1.30;;;;;;;;;;4949837;28;20130;-75
2022/10/05 10:12:38;;;;;;;0.90;0.90;;;;;;;;;;4917570;29;20038;-74
2022/10/05 10:15:04;;;;;;;1.20;1.20;;;;;;;;;;4951850;29;20039;-74
2022/10/05 10:17:33;;;;;;;1.00;1.00;;;;;;;;;;4946756;28;20423;-75
2022/10/05 10:20:34;;;;;;;1.42;0.98;;;;;;;;;;4970995;28;20043;-75
2022/10/05 10:23:09;;;;;;;1.05;1.05;;;;;;;;;;4873314;29;20056;-75
2022/10/05 10:25:44;;;;;;;0.80;0.80;;;;;;;;;;4939603;28;20073;-74
2022/10/05 10:28:28;;;;;;;0.90;0.90;;;;;;;;;;4971293;28;20059;-75
2022/10/05 10:31:13;;;;;;;0.93;0.93;;;;;;;;;;4974987;28;20101;-75
2022/10/05 10:33:45;;;;;;;1.13;1.13;;;;;;;;;;4974762;28;20050;-76
2022/10/05 10:36:19;;;;;;;0.90;0.90;;;;;;;;;;4957837;28;20042;-78
2022/10/05 10:38:48;;;;;;;1.00;1.00;;;;;;;;;;4957240;28;20046;-76
2022/10/05 10:41:32;;;;;;;1.02;1.02;;;;;;;;;;4957484;28;20126;-76
2022/10/05 10:43:58;;;;;;;1.63;1.30;;;;;;;;;;4957629;28;20058;-76
2022/10/05 10:46:24;;;;;;;1.52;1.42;;;;;;;;;;4974535;28;20042;-75
2022/10/05 10:48:53;;;;;;;1.20;1.10;;;;;;;;;;4940936;28;20042;-76
2022/10/05 10:51:21;;;;;;;1.52;1.20;;;;;;;;;;4974534;28;20049;-76
2022/10/05 10:54:06;;;;;;;1.45;1.25;;;;;;;;;;4974309;28;20055;-75
2022/10/05 10:56:32;;;;;;;1.10;1.10;;;;;;;;;;4974527;28;20042;-75
2022/10/05 10:58:58;;;;;;;0.95;0.95;;;;;;;;;;4974076;28;20042;-76
2022/10/05 11:01:27;;;;;;;0.90;0.90;;;;;;;;;;4974098;28;20133;-75
2022/10/05 11:04:08;;;;;;;1.15;1.05;;;;;;;;;;4973987;28;20128;-76
2022/10/05 11:06:34;;;;;;;;;;;;;;;;;;4974622;28;20039;-76
2022/10/05 11:09:00;;;;;;;1.00;1.00;;;;;;;;;;4974261;28;20409;-78
2022/10/05 11:11:41;;;;;;;1.33;1.30;;;;;;;;;;4974210;28;20044;-78
2022/10/05 11:14:30;;;;;;;2.05;1.40;;;;;;;;;;4956632;28;20051;-78
2022/10/05 11:17:02;;;;;;;1.38;1.27;;;;;;;;;;4972638;28;20035;-79
2022/10/05 11:19:44;;;;;;;1.20;1.20;;;;;;;;;;4969034;28;20050;-77
2022/10/05 11:22:20;;;;;;;2.38;1.67;;;;;;;;;;4956200;28;20042;-75
2022/10/05 11:25:04;;;;;;;2.15;1.40;;;;;;;;;;4972904;28;20167;-74
2022/10/05 11:27:46;;;;;;;2.47;1.42;;;;;;;;;;4973416;28;20466;-76
2022/10/05 11:30:30;;;;;;;1.40;1.40;;;;;;;;;;4985538;28;20039;-76
2022/10/05 11:33:02;;;;;;;1.23;1.23;;;;;;;;;;4947381;28;20039;-75
2022/10/05 11:35:47;;;;;;;1.23;1.20;;;;;;;;;;4971555;28;20054;-74
2022/10/05 11:38:15;;;;;;;1.70;1.60;;;;;;;;;;4969103;28;20141;-76
2022/10/05 11:40:50;;;;;;;1.70;1.55;;;;;;;;;;4950145;28;20070;-75
2022/10/05 11:43:21;;;;;;;1.75;1.42;;;;;;;;;;4946538;28;20047;-75
2022/10/05 11:46:05;;;;;;;1.40;1.40;;;;;;;;;;4936427;28;20520;-74
2022/10/05 11:48:50;;;;;;;1.75;1.42;;;;;;;;;;4967047;28;20047;-74
2022/10/05 11:51:33;;;;;;;1.65;1.55;;;;;;;;;;4928614;28;20089;-74
2022/10/05 11:54:08;;;;;;;1.95;1.80;;;;;;;;;;4954196;28;20598;-75
2022/10/05 11:56:35;;;;;;;1.77;1.67;;;;;;;;;;4953255;28;20053;-74
2022/10/05 11:59:04;;;;;;;1.90;1.63;;;;;;;;;;4953372;28;20130;-74
2022/10/05 12:01:41;;;;;;;1.52;1.45;;;;;;;;;;4953331;28;20126;-74
2022/10/05 12:04:07;;;;;;;1.70;1.60;;;;;;;;;;4935928;28;20082;-73
2022/10/05 12:06:51;;;;;;;1.70;1.60;;;;;;;;;;4953095;28;20411;-74
2022/10/05 12:09:22;;;;;;;1.70;1.60;;;;;;;;;;4936147;29;20049;-76
2022/10/05 12:12:06;;;;;;;1.70;1.30;;;;;;;;;;4936168;29;20531;-77
2022/10/05 12:14:38;;;;;;;1.75;1.65;;;;;;;;;;4971358;28;20126;-77
2022/10/05 12:17:13;;;;;;;1.95;1.85;;;;;;;;;;4930727;28;20043;-77
2022/10/05 12:20:11;;;;;;;1.73;1.52;;;;;;;;;;4952865;28;20058;-76
2022/10/05 12:22:41;;;;;;;1.65;1.55;;;;;;;;;;4932374;28;20039;-75
2022/10/05 12:25:14;;;;;;;1.65;1.55;;;;;;;;;;4962032;28;20047;-75
2022/10/05 12:27:42;;;;;;;1.38;1.20;;;;;;;;;;4964381;28;20058;-76
2022/10/05 12:30:17;;;;;;;1.50;1.40;;;;;;;;;;4944880;28;20130;-77
2022/10/05 12:32:47;;;;;;;2.47;1.70;;;;;;;;;;4953288;28;20094;-77
2022/10/05 12:35:33;;;;;;;1.52;1.42;;;;;;;;;;4935784;29;20397;-77
2022/10/05 12:38:24;;;;;;;1.25;1.25;;;;;;;;;;4935511;28;20043;-77
2022/10/05 12:40:52;;;;;;;4.28;1.60;;;;;;;;;;4948578;28;20035;-77
2022/10/05 12:43:32;;;;;;;1.50;1.50;;;;;;;;;;4952593;28;20554;-76
2022/10/05 12:46:00;;;;;;;1.73;1.60;;;;;;;;;;4935584;28;20049;-76
2022/10/05 12:48:42;;;;;;;1.00;0.98;;;;;;;;;;4935368;28;20155;-76
2022/10/05 12:51:10;;;;;;;1.40;1.30;;;;;;;;;;4934627;29;20164;-77
2022/10/05 12:53:47;;;;;;;1.10;1.10;;;;;;;;;;4937082;28;20170;-76
2022/10/05 12:56:27;;;;;;;1.30;1.20;;;;;;;;;;4935512;29;20043;-76
2022/10/05 12:58:53;;;;;;;1.02;1.02;;;;;;;;;;4926078;28;20503;-79
2022/10/05 13:01:25;;;;;;;1.27;1.27;;;;;;;;;;4957114;28;20051;-75
2022/10/05 13:03:51;;;;;;;1.10;1.10;;;;;;;;;;4951927;28;20581;-74
2022/10/05 13:06:21;;;;;;;1.27;1.27;;;;;;;;;;4948258;28;20105;-75
2022/10/05 13:08:47;;;;;;;1.02;1.02;;;;;;;;;;4942747;28;20523;-75
2022/10/05 13:11:21;;;;;;;1.10;1.10;;;;;;;;;;4938024;28;20046;-76
2022/10/05 13:14:06;;;;;;;1.20;1.20;;;;;;;;;;4970514;28;20149;-76
2022/10/05 13:16:36;;;;;;;1.20;1.10;;;;;;;;;;4971348;28;20031;-78
2022/10/05 13:19:01;;;;;;;1.15;1.15;;;;;;;;;;4974040;28;20047;-80
2022/10/05 13:21:37;;;;;;;1.33;1.20;;;;;;;;;;4970748;28;20133;-78
2022/10/05 13:24:04;;;;;;;1.20;1.20;;;;;;;;;;4963177;28;20071;-77
2022/10/05 13:26:32;;;;;;;1.17;1.17;;;;;;;;;;4937478;28;20043;-76
2022/10/05 13:29:01;;;;;;;1.55;1.30;;;;;;;;;;4961958;28;20070;-77
2022/10/05 13:31:40;;;;;;;1.73;1.60;;;;;;;;;;4961167;28;20039;-79
2022/10/05 13:34:08;;;;;;;1.60;1.48;;;;;;;;;;4954463;28;20089;-76
2022/10/05 13:36:37;;;;;;;1.60;1.50;;;;;;;;;;4945382;28;20468;-79
2022/10/05 13:39:09;;;;;;;2.28;1.75;;;;;;;;;;4952127;28;20137;-78
2022/10/05 13:41:38;;;;;;;2.00;1.83;;;;;;;;;;4952117;28;20075;-78
2022/10/05 13:44:11;;;;;;;3.60;1.92;;;;;;;;;;4944943;28;20065;-78
2022/10/05 13:46:43;;;;;;;1.80;1.70;;;;;;;;;;4979571;28;20125;-79
2022/10/05 13:49:18;;;;;;;1.80;1.70;;;;;;;;;;4990922;28;20042;-80
2022/10/05 13:51:45;;;;;;;1.77;1.67;;;;;;;;;;4990358;28;20038;-80
2022/10/05 13:54:14;;;;;;;1.80;1.70;;;;;;;;;;4973124;28;20129;-78
2022/10/05 13:56:47;;;;;;;2.92;1.67;;;;;;;;;;4973095;28;20046;-78
2022/10/05 13:59:20;;;;;;;2.10;2.00;;;;;;;;;;4940707;28;20096;-79
2022/10/05 14:02:05;;;;;;;1.50;1.50;;;;;;;;;;4941075;28;20050;-79
2022/10/05 14:04:40;;;;;;;1.90;1.80;;;;;;;;;;4957184;28;20046;-80
2022/10/05 14:07:22;;;;;;;6.18;5.60;;;;;;;;;;4990253;28;20112;-78
2022/10/05 14:09:48;;;;;;;2.17;1.80;;;;;;;;;;4963018;28;20153;-79
2022/10/05 14:12:18;;;;;;;3.30;1.70;;;;;;;;;;4963359;28;20035;-80
2022/10/05 14:14:45;;;;;;;2.50;2.30;;;;;;;;;;4970283;28;20066;-79
2022/10/05 14:17:12;;;;;;;1.80;1.70;;;;;;;;;;4954019;28;20133;-79
2022/10/05 14:19:43;;;;;;;1.73;1.63;;;;;;;;;;4953633;28;20047;-79
2022/10/05 14:22:21;;;;;;;2.30;2.20;;;;;;;;;;4923326;28;20419;-81
2022/10/05 14:24:50;;;;;;;1.67;1.58;;;;;;;;;;4938759;28;20743;-81
2022/10/05 14:27:39;;;;;;;1.88;1.80;;;;;;;;;;4970139;28;20422;-78
2022/10/05 14:30:11;;;;;;;2.28;2.08;;;;;;;;;;4956954;28;20507;-79
2022/10/05 14:32:46;;;;;;;2.63;2.08;;;;;;;;;;4970896;28;20054;-81
2022/10/05 14:35:13;;;;;;;2.10;2.00;;;;;;;;;;4977713;28;20126;-83
2022/10/05 14:37:43;;;;;;;2.65;1.90;;;;;;;;;;4956384;28;20125;-81
2022/10/05 14:40:29;;;;;;;1.58;1.50;;;;;;;;;;4976785;28;20042;-82
2022/10/05 14:42:55;;;;;;;1.42;1.40;;;;;;;;;;4956079;28;20049;-82
2022/10/05 14:45:22;;;;;;;2.40;1.63;;;;;;;;;;4983332;28;20122;-84
2022/10/05 14:47:52;;;;;;;1.75;1.65;;;;;;;;;;4971878;28;20055;-81
2022/10/05 14:50:25;;;;;;;1.73;1.65;;;;;;;;;;4971532;28;20118;-82
2022/10/05 14:53:11;;;;;;;1.48;1.40;;;;;;;;;;4964193;28;20053;-86
2022/10/05 14:55:55;;;;;;;1.85;1.75;;;;;;;;;;4960523;28;20087;-87
2022/10/05 14:58:30;;;;;;;2.13;1.80;;;;;;;;;;4975759;28;20110;-85
2022/10/05 15:01:01;;;;;;;1.73;1.65;;;;;;;;;;4977024;28;20039;-85
2022/10/05 15:03:28;;;;;;;1.67;1.58;;;;;;;;;;4965322;28;20023;-85
2022/10/05 15:05:57;;;;;;;1.60;1.50;;;;;;;;;;5014090;28;20039;-87
2022/10/05 15:08:23;;;;;;;1.33;1.33;;;;;;;;;;4964349;28;20047;-85
2022/10/05 15:10:55;;;;;;;1.67;1.58;;;;;;;;;;4985838;28;20153;-83
2022/10/05 15:13:22;;;;;;;1.52;1.42;;;;;;;;;;4956191;28;20423;-82
2022/10/05 15:16:04;;;;;;;2.25;2.08;;;;;;;;;;4980812;28;20039;-84
2022/10/05 15:18:39;;;;;;;2.20;1.70;;;;;;;;;;4974524;28;20090;-84
2022/10/05 15:21:22;;;;;;;1.40;1.40;;;;;;;;;;4977635;28;20050;-83
2022/10/05 15:23:52;;;;;;;1.70;1.35;;;;;;;;;;4992193;28;20051;-83
2022/10/05 15:26:35;;;;;;;2.97;1.60;;;;;;;;;;4993265;28;20039;-85
2022/10/05 15:29:04;;;;;;;1.33;1.33;;;;;;;;;;4995010;28;20133;-85
2022/10/05 15:31:36;;;;;;;1.48;1.38;;;;;;;;;;4968985;28;20085;-84
2022/10/05 15:34:11;;;;;;;1.63;1.55;;;;;;;;;;4970878;28;20057;-83
2022/10/05 15:36:41;;;;;;;1.70;1.60;;;;;;;;;;4967873;28;20126;-83
2022/10/05 15:39:08;;;;;;;2.63;1.60;;;;;;;;;;4971354;28;20054;-83
2022/10/05 15:41:39;;;;;;;1.73;1.63;;;;;;;;;;4992290;28;20066;-82
2022/10/05 15:44:06;;;;;;;1.67;1.58;;;;;;;;;;4994682;28;20066;-81
2022/10/05 15:46:39;;;;;;;1.73;1.67;;;;;;;;;;4998418;28;20039;-83
2022/10/05 15:49:17;;;;;;;1.73;1.63;;;;;;;;;;4995689;28;20058;-81
2022/10/05 15:51:49;;;;;;;2.10;1.90;;;;;;;;;;4992277;28;20067;-83
2022/10/05 15:54:42;;;;;;;1.95;1.70;;;;;;;;;;4994881;28;20098;-83
2022/10/05 15:57:20;;;;;;;2.30;2.10;;;;;;;;;;4964642;28;20018;-83
2022/10/05 16:00:00;;;;;;;2.20;2.10;;;;;;;;;;4999079;28;20035;-82
2022/10/05 16:02:28;;;;;;;3.28;2.97;;;;;;;;;;4998176;28;20038;-83
2022/10/05 16:05:10;;;;;;;3.13;2.80;;;;;;;;;;4946044;28;20053;-83
2022/10/05 16:10:23;;;;;;;2.40;2.30;;;;;;;;;;4976723;28;20043;-79
2022/10/05 16:12:52;;;;;;;2.45;2.30;;;;;;;;;;4981930;28;20046;-81
2022/10/05 16:15:21;;;;;;;2.47;2.28;;;;;;;;;;4965390;28;20062;-81
2022/10/05 16:17:57;;;;;;;2.17;2.00;;;;;;;;;;4960134;28;20049;-76
2022/10/05 16:20:39;;;;;;;2.15;2.05;;;;;;;;;;4936557;28;20074;-75